createdAt,value
2023-05-05T00:00:19.370Z,93050.00
2023-05-05T00:01:19.428Z,93050.00
2023-05-05T00:02:19.545Z,93050.00
2023-05-05T00:03:19.568Z,93048.00
2023-05-05T00:04:19.627Z,93050.00
2023-05-05T00:05:19.618Z,93048.00
2023-05-05T00:06:19.685Z,93048.00
2023-05-05T00:07:19.728Z,93048.00
2023-05-05T00:08:19.781Z,93050.00
2023-05-05T00:09:19.841Z,93048.00
2023-05-05T00:10:20.766Z,93048.00
2023-05-05T00:11:19.952Z,93046.00
2023-05-05T00:12:20.011Z,93044.00
2023-05-05T00:13:20.056Z,93044.00
2023-05-05T00:14:20.104Z,93040.00
2023-05-05T00:15:20.159Z,93038.00
2023-05-05T00:16:20.396Z,93040.00
2023-05-05T00:17:20.293Z,93042.00
2023-05-05T00:18:20.324Z,93040.00
2023-05-05T00:19:20.384Z,93042.00
2023-05-05T00:20:20.454Z,93042.00
2023-05-05T00:21:20.498Z,93042.00
2023-05-05T00:22:20.564Z,93042.00
2023-05-05T00:23:20.641Z,93044.00
2023-05-05T00:24:20.684Z,93042.00
2023-05-05T00:25:20.745Z,93044.00
2023-05-05T00:26:20.812Z,93044.00
2023-05-05T00:27:20.874Z,93042.00
2023-05-05T00:28:21.002Z,93040.00
2023-05-05T00:29:20.996Z,93042.00
2023-05-05T00:30:21.054Z,93040.00
2023-05-05T00:31:21.154Z,93042.00
2023-05-05T00:32:21.208Z,93042.00
2023-05-05T00:33:21.222Z,93040.00
2023-05-05T00:34:21.271Z,93042.00
2023-05-05T00:35:21.322Z,93040.00
2023-05-05T00:36:21.401Z,93038.00
2023-05-05T00:37:21.423Z,93036.00
2023-05-05T00:38:21.473Z,93034.00
2023-05-05T00:39:21.567Z,93036.00
2023-05-05T00:40:21.571Z,93036.00
2023-05-05T00:41:21.626Z,93036.00
2023-05-05T00:42:21.672Z,93038.00
2023-05-05T00:43:21.752Z,93040.00
2023-05-05T00:44:21.763Z,93042.00
2023-05-05T00:45:21.816Z,93040.00
2023-05-05T00:46:21.903Z,93040.00
2023-05-05T00:47:21.911Z,93040.00
2023-05-05T00:48:21.978Z,93040.00
2023-05-05T00:49:22.114Z,93040.00
2023-05-05T00:50:22.093Z,93038.00
2023-05-05T00:51:22.166Z,93036.00
2023-05-05T00:52:22.213Z,93034.00
2023-05-05T00:53:22.270Z,93036.00
2023-05-05T00:54:22.346Z,93036.00
2023-05-05T00:55:22.387Z,93036.00
2023-05-05T00:56:22.465Z,93034.00
2023-05-05T00:57:22.517Z,93034.00
2023-05-05T00:58:22.567Z,93032.00
2023-05-05T00:59:22.633Z,93036.00
2023-05-05T01:00:22.697Z,93034.00
2023-05-05T01:01:22.747Z,93034.00
2023-05-05T01:02:22.820Z,93030.00
2023-05-05T01:03:22.920Z,93030.00
2023-05-05T01:04:22.899Z,93032.00
2023-05-05T01:05:22.951Z,93032.00
2023-05-05T01:06:22.999Z,93036.00
2023-05-05T01:07:23.044Z,93038.00
2023-05-05T01:08:23.091Z,93038.00
2023-05-05T01:09:23.152Z,93036.00
2023-05-05T01:10:23.436Z,93036.00
2023-05-05T01:11:23.269Z,93032.00
2023-05-05T01:12:23.329Z,93030.00
2023-05-05T01:13:23.406Z,93034.00
2023-05-05T01:14:23.449Z,93030.00
2023-05-05T01:15:23.520Z,93036.00
2023-05-05T01:16:23.637Z,93030.00
2023-05-05T01:17:23.669Z,93034.00
2023-05-05T01:18:23.684Z,93032.00
2023-05-05T01:19:23.760Z,93034.00
2023-05-05T01:20:23.815Z,93036.00
2023-05-05T01:21:23.875Z,93032.00
2023-05-05T01:22:23.927Z,93034.00
2023-05-05T01:23:23.981Z,93034.00
2023-05-05T01:24:24.036Z,93034.00
2023-05-05T01:25:24.106Z,93036.00
2023-05-05T01:26:24.147Z,93036.00
2023-05-05T01:27:24.197Z,93036.00
2023-05-05T01:28:24.249Z,93038.00
2023-05-05T01:29:24.312Z,93036.00
2023-05-05T01:30:24.361Z,93036.00
2023-05-05T01:31:24.431Z,93038.00
2023-05-05T01:32:24.534Z,93038.00
2023-05-05T01:33:24.537Z,93036.00
2023-05-05T01:34:24.607Z,93036.00
2023-05-05T01:35:24.641Z,93040.00
2023-05-05T01:36:24.683Z,93036.00
2023-05-05T01:37:24.735Z,93038.00
2023-05-05T01:38:24.786Z,93038.00
2023-05-05T01:39:24.831Z,93036.00
2023-05-05T01:40:24.876Z,93036.00
2023-05-05T01:41:24.932Z,93036.00
2023-05-05T01:42:24.991Z,93034.00
2023-05-05T01:43:25.020Z,93036.00
2023-05-05T01:44:25.063Z,93036.00
2023-05-05T01:45:25.126Z,93038.00
2023-05-05T01:46:25.166Z,93038.00
2023-05-05T01:47:25.242Z,93040.00
2023-05-05T01:48:25.255Z,93040.00
2023-05-05T01:49:25.320Z,93048.00
2023-05-05T01:50:25.368Z,93044.00
2023-05-05T01:51:25.418Z,93042.00
2023-05-05T01:52:25.458Z,93042.00
2023-05-05T01:53:25.513Z,93038.00
2023-05-05T01:54:25.564Z,93040.00
2023-05-05T01:55:25.617Z,93038.00
2023-05-05T01:56:25.672Z,93040.00
2023-05-05T01:57:25.715Z,93038.00
2023-05-05T01:58:25.768Z,93038.00
2023-05-05T01:59:25.815Z,93040.00
2023-05-05T02:00:25.873Z,93042.00
2023-05-05T02:01:25.949Z,93042.00
2023-05-05T02:02:26.033Z,93044.00
2023-05-05T02:03:26.058Z,93042.00
2023-05-05T02:04:26.077Z,93038.00
2023-05-05T02:05:26.134Z,93036.00
2023-05-05T02:06:26.213Z,93040.00
2023-05-05T02:07:26.267Z,93036.00
2023-05-05T02:08:26.339Z,93038.00
2023-05-05T02:09:26.362Z,93036.00
2023-05-05T02:10:26.426Z,93036.00
2023-05-05T02:11:26.477Z,93040.00
2023-05-05T02:12:26.527Z,93040.00
2023-05-05T02:13:26.631Z,93036.00
2023-05-05T02:14:26.626Z,93038.00
2023-05-05T02:15:26.679Z,93038.00
2023-05-05T02:16:26.732Z,93040.00
2023-05-05T02:17:26.807Z,93038.00
2023-05-05T02:18:26.840Z,93040.00
2023-05-05T02:19:26.887Z,93040.00
2023-05-05T02:20:26.952Z,93038.00
2023-05-05T02:21:27.004Z,93038.00
2023-05-05T02:22:27.051Z,93038.00
2023-05-05T02:23:27.103Z,93038.00
2023-05-05T02:24:27.152Z,93038.00
2023-05-05T02:25:27.203Z,93036.00
2023-05-05T02:26:27.256Z,93038.00
2023-05-05T02:27:27.304Z,93036.00
2023-05-05T02:28:27.366Z,93036.00
2023-05-05T02:29:27.412Z,93040.00
2023-05-05T02:30:27.444Z,93038.00
2023-05-05T02:31:27.601Z,93040.00
2023-05-05T02:32:27.591Z,93038.00
2023-05-05T02:33:27.595Z,93040.00
2023-05-05T02:34:27.640Z,93040.00
2023-05-05T02:35:27.689Z,93042.00
2023-05-05T02:36:27.798Z,93040.00
2023-05-05T02:37:27.801Z,93042.00
2023-05-05T02:38:27.853Z,93038.00
2023-05-05T02:39:27.909Z,93040.00
2023-05-05T02:40:27.958Z,93038.00
2023-05-05T02:41:28.007Z,93036.00
2023-05-05T02:42:28.072Z,93036.00
2023-05-05T02:43:28.125Z,93036.00
2023-05-05T02:44:28.187Z,93038.00
2023-05-05T02:45:28.256Z,93040.00
2023-05-05T02:46:28.362Z,93040.00
2023-05-05T02:47:28.365Z,93042.00
2023-05-05T02:48:28.406Z,93044.00
2023-05-05T02:49:28.445Z,93044.00
2023-05-05T02:50:28.473Z,93042.00
2023-05-05T02:51:28.518Z,93044.00
2023-05-05T02:52:28.571Z,93044.00
2023-05-05T02:53:28.625Z,93046.00
2023-05-05T02:54:28.683Z,93052.00
2023-05-05T02:55:28.745Z,93046.00
2023-05-05T02:56:28.777Z,93048.00
2023-05-05T02:57:28.827Z,93054.00
2023-05-05T02:58:28.887Z,93048.00
2023-05-05T02:59:28.947Z,93054.00
2023-05-05T03:00:29.004Z,93046.00
2023-05-05T03:01:29.116Z,93052.00
2023-05-05T03:02:29.246Z,93048.00
2023-05-05T03:03:29.272Z,93048.00
2023-05-05T03:04:29.242Z,93044.00
2023-05-05T03:05:29.256Z,93044.00
2023-05-05T03:06:29.323Z,93044.00
2023-05-05T03:07:29.374Z,93046.00
2023-05-05T03:08:29.421Z,93042.00
2023-05-05T03:09:29.490Z,93042.00
2023-05-05T03:10:29.546Z,93042.00
2023-05-05T03:11:29.597Z,93044.00
2023-05-05T03:12:29.677Z,93044.00
2023-05-05T03:13:29.686Z,93044.00
2023-05-05T03:14:32.772Z,93044.00
2023-05-05T03:15:29.745Z,93044.00
2023-05-05T03:16:29.793Z,93042.00
2023-05-05T03:17:29.762Z,93046.00
2023-05-05T03:18:29.824Z,93048.00
2023-05-05T03:19:29.780Z,93044.00
2023-05-05T03:20:29.780Z,93048.00
2023-05-05T03:21:29.792Z,93050.00
2023-05-05T03:22:29.784Z,93050.00
2023-05-05T03:23:29.796Z,93048.00
2023-05-05T03:24:29.813Z,93050.00
2023-05-05T03:25:29.812Z,93046.00
2023-05-05T03:26:29.808Z,93048.00
2023-05-05T03:27:29.829Z,93048.00
2023-05-05T03:28:29.830Z,93046.00
2023-05-05T03:29:29.822Z,93046.00
2023-05-05T03:30:29.825Z,93046.00
2023-05-05T03:31:29.867Z,93046.00
2023-05-05T03:32:29.888Z,93046.00
2023-05-05T03:33:29.851Z,93046.00
2023-05-05T03:34:29.846Z,93046.00
2023-05-05T03:35:29.871Z,93048.00
2023-05-05T03:36:29.865Z,93044.00
2023-05-05T03:37:29.870Z,93042.00
2023-05-05T03:38:29.884Z,93040.00
2023-05-05T03:39:29.882Z,93038.00
2023-05-05T03:40:42.964Z,93042.00
2023-05-05T03:41:30.907Z,93038.00
2023-05-05T03:42:29.902Z,93038.00
2023-05-05T03:43:29.911Z,93038.00
2023-05-05T03:44:29.913Z,93042.00
2023-05-05T03:45:29.985Z,93042.00
2023-05-05T03:46:29.944Z,93040.00
2023-05-05T03:47:29.970Z,93042.00
2023-05-05T03:48:29.939Z,93040.00
2023-05-05T03:49:29.948Z,93044.00
2023-05-05T03:50:29.948Z,93042.00
2023-05-05T03:51:29.957Z,93040.00
2023-05-05T03:52:29.953Z,93042.00
2023-05-05T03:53:29.993Z,93044.00
2023-05-05T03:54:30.025Z,93046.00
2023-05-05T03:55:30.077Z,93046.00
2023-05-05T03:56:30.110Z,93046.00
2023-05-05T03:57:30.159Z,93046.00
2023-05-05T03:58:30.209Z,93046.00
2023-05-05T03:59:30.263Z,93042.00
2023-05-05T04:00:30.841Z,93044.00
2023-05-05T04:01:30.353Z,93046.00
2023-05-05T04:02:30.474Z,93046.00
2023-05-05T04:03:30.745Z,93046.00
2023-05-05T04:04:30.552Z,93046.00
2023-05-05T04:05:30.535Z,93048.00
2023-05-05T04:06:30.583Z,93046.00
2023-05-05T04:07:30.624Z,93046.00
2023-05-05T04:08:30.677Z,93046.00
2023-05-05T04:09:30.723Z,93048.00
2023-05-05T04:10:30.780Z,93048.00
2023-05-05T04:11:30.823Z,93046.00
2023-05-05T04:12:30.918Z,93046.00
2023-05-05T04:13:30.926Z,93048.00
2023-05-05T04:14:30.975Z,93046.00
2023-05-05T04:15:31.015Z,93046.00
2023-05-05T04:16:31.188Z,93044.00
2023-05-05T04:17:31.112Z,93044.00
2023-05-05T04:18:31.177Z,93044.00
2023-05-05T04:19:31.223Z,93042.00
2023-05-05T04:20:31.275Z,93042.00
2023-05-05T04:21:31.324Z,93044.00
2023-05-05T04:22:31.366Z,93042.00
2023-05-05T04:23:31.425Z,93042.00
2023-05-05T04:24:31.473Z,93042.00
2023-05-05T04:25:31.549Z,93042.00
2023-05-05T04:26:31.576Z,93044.00
2023-05-05T04:27:31.610Z,93046.00
2023-05-05T04:28:31.723Z,93046.00
2023-05-05T04:29:31.710Z,93042.00
2023-05-05T04:30:31.758Z,93044.00
2023-05-05T04:31:31.834Z,93046.00
2023-05-05T04:32:31.899Z,93046.00
2023-05-05T04:33:31.898Z,93044.00
2023-05-05T04:34:31.956Z,93048.00
2023-05-05T04:35:32.012Z,93046.00
2023-05-05T04:36:32.062Z,93050.00
2023-05-05T04:37:32.118Z,93048.00
2023-05-05T04:38:32.192Z,93046.00
2023-05-05T04:39:32.221Z,93046.00
2023-05-05T04:40:32.291Z,93048.00
2023-05-05T04:41:32.325Z,93050.00
2023-05-05T04:42:32.377Z,93056.00
2023-05-05T04:43:32.432Z,93058.00
2023-05-05T04:44:32.475Z,93054.00
2023-05-05T04:45:32.529Z,93056.00
2023-05-05T04:46:32.586Z,93060.00
2023-05-05T04:47:32.637Z,93056.00
2023-05-05T04:48:32.767Z,93052.00
2023-05-05T04:49:32.801Z,93052.00
2023-05-05T04:50:32.825Z,93050.00
2023-05-05T04:51:32.867Z,93052.00
2023-05-05T04:52:32.877Z,93048.00
2023-05-05T04:53:32.919Z,93050.00
2023-05-05T04:54:32.976Z,93050.00
2023-05-05T04:55:33.037Z,93054.00
2023-05-05T04:56:33.102Z,93054.00
2023-05-05T04:57:33.153Z,93050.00
2023-05-05T04:58:33.201Z,93054.00
2023-05-05T04:59:33.253Z,93060.00
2023-05-05T05:00:33.310Z,93054.00
2023-05-05T05:01:33.462Z,93056.00
2023-05-05T05:02:33.492Z,93058.00
2023-05-05T05:03:33.595Z,93062.00
2023-05-05T05:04:33.550Z,93062.00
2023-05-05T05:05:33.605Z,93064.00
2023-05-05T05:06:33.617Z,93066.00
2023-05-05T05:07:33.676Z,93066.00
2023-05-05T05:08:33.725Z,93068.00
2023-05-05T05:09:33.768Z,93070.00
2023-05-05T05:10:33.824Z,93068.00
2023-05-05T05:11:33.884Z,93068.00
2023-05-05T05:12:33.943Z,93074.00
2023-05-05T05:13:33.954Z,93072.00
2023-05-05T05:14:34.876Z,93074.00
2023-05-05T05:15:34.045Z,93075.00
2023-05-05T05:16:34.128Z,93074.00
2023-05-05T05:17:34.169Z,93074.00
2023-05-05T05:18:34.224Z,93074.00
2023-05-05T05:19:34.263Z,93074.00
2023-05-05T05:20:34.347Z,93072.00
2023-05-05T05:21:34.366Z,93070.00
2023-05-05T05:22:34.409Z,93068.00
2023-05-05T05:23:34.456Z,93064.00
2023-05-05T05:24:34.524Z,93068.00
2023-05-05T05:25:34.584Z,93068.00
2023-05-05T05:26:34.657Z,93064.00
2023-05-05T05:27:34.731Z,93068.00
2023-05-05T05:28:34.798Z,93066.00
2023-05-05T05:29:34.880Z,93070.00
2023-05-05T05:30:34.972Z,93066.00
2023-05-05T05:31:35.843Z,93066.00
2023-05-05T05:32:35.153Z,93068.00
2023-05-05T05:33:35.202Z,93068.00
2023-05-05T05:34:35.287Z,93068.00
2023-05-05T05:35:35.362Z,93074.00
2023-05-05T05:36:35.428Z,93072.00
2023-05-05T05:37:35.491Z,93074.00
2023-05-05T05:38:35.571Z,93072.00
2023-05-05T05:39:35.615Z,93072.00
2023-05-05T05:40:35.663Z,93072.00
2023-05-05T05:41:35.720Z,93072.00
2023-05-05T05:42:35.862Z,93070.00
2023-05-05T05:43:35.831Z,93074.00
2023-05-05T05:44:35.861Z,93075.00
2023-05-05T05:45:35.909Z,93075.00
2023-05-05T05:46:36.040Z,93075.00
2023-05-05T05:47:36.024Z,93074.00
2023-05-05T05:48:36.034Z,93074.00
2023-05-05T05:49:36.081Z,93070.00
2023-05-05T05:50:36.115Z,93075.00
2023-05-05T05:51:36.164Z,93074.00
2023-05-05T05:52:36.193Z,93077.00
2023-05-05T05:53:36.239Z,93079.00
2023-05-05T05:54:36.270Z,93072.00
2023-05-05T05:55:36.311Z,93072.00
2023-05-05T05:56:36.347Z,93068.00
2023-05-05T05:57:36.393Z,93072.00
2023-05-05T05:58:36.457Z,93068.00
2023-05-05T05:59:36.523Z,93070.00
2023-05-05T06:00:36.576Z,93070.00
2023-05-05T06:01:36.647Z,93072.00
2023-05-05T06:02:36.790Z,93070.00
2023-05-05T06:03:36.791Z,93070.00
2023-05-05T06:04:36.879Z,93070.00
2023-05-05T06:05:36.900Z,93072.00
2023-05-05T06:06:36.943Z,93070.00
2023-05-05T06:07:36.992Z,93070.00
2023-05-05T06:08:37.040Z,93064.00
2023-05-05T06:09:37.091Z,93066.00
2023-05-05T06:10:37.143Z,93064.00
2023-05-05T06:11:37.184Z,93064.00
2023-05-05T06:12:37.261Z,93062.00
2023-05-05T06:13:37.234Z,93058.00
2023-05-05T06:14:37.274Z,93064.00
2023-05-05T06:15:37.318Z,93062.00
2023-05-05T06:16:37.308Z,93060.00
2023-05-05T06:17:37.319Z,93058.00
2023-05-05T06:18:37.338Z,93066.00
2023-05-05T06:19:37.342Z,93062.00
2023-05-05T06:20:37.358Z,93064.00
2023-05-05T06:21:37.359Z,93056.00
2023-05-05T06:22:37.390Z,93058.00
2023-05-05T06:23:37.405Z,93060.00
2023-05-05T06:24:37.429Z,93056.00
2023-05-05T06:25:37.450Z,93058.00
2023-05-05T06:26:37.457Z,93050.00
2023-05-05T06:27:37.482Z,93052.00
2023-05-05T06:28:37.526Z,93048.00
2023-05-05T06:29:37.530Z,93044.00
2023-05-05T06:30:37.544Z,93042.00
2023-05-05T06:31:37.630Z,93044.00
2023-05-05T06:32:37.578Z,93046.00
2023-05-05T06:33:37.572Z,93038.00
2023-05-05T06:34:37.593Z,93038.00
2023-05-05T06:35:37.597Z,93038.00
2023-05-05T06:36:37.675Z,93032.00
2023-05-05T06:37:37.615Z,93032.00
2023-05-05T06:38:37.628Z,93038.00
2023-05-05T06:39:37.646Z,93030.00
2023-05-05T06:40:37.660Z,93032.00
2023-05-05T06:41:37.716Z,93030.00
2023-05-05T06:42:37.649Z,93034.00
2023-05-05T06:43:37.658Z,93028.00
2023-05-05T06:44:37.674Z,93032.00
2023-05-05T06:45:37.712Z,93030.00
2023-05-05T06:46:37.838Z,93032.00
2023-05-05T06:47:37.819Z,93034.00
2023-05-05T06:48:37.822Z,93032.00
2023-05-05T06:49:37.863Z,93032.00
2023-05-05T06:50:37.918Z,93034.00
2023-05-05T06:51:37.961Z,93028.00
2023-05-05T06:52:37.973Z,93032.00
2023-05-05T06:53:38.032Z,93030.00
2023-05-05T06:54:38.143Z,93025.00
2023-05-05T06:55:38.911Z,93025.00
2023-05-05T06:56:38.103Z,93021.00
2023-05-05T06:57:38.102Z,93021.00
2023-05-05T06:58:38.080Z,93017.00
2023-05-05T06:59:38.075Z,93019.00
2023-05-05T07:00:38.085Z,93019.00
2023-05-05T07:01:38.066Z,93019.00
2023-05-05T07:02:38.091Z,93017.00
2023-05-05T07:03:38.074Z,93019.00
2023-05-05T07:04:38.079Z,93017.00
2023-05-05T07:05:38.051Z,93015.00
2023-05-05T07:06:38.047Z,93009.00
2023-05-05T07:07:38.043Z,93013.00
2023-05-05T07:08:38.023Z,93009.00
2023-05-05T07:09:38.015Z,93007.00
2023-05-05T07:10:38.145Z,93009.00
2023-05-05T07:11:38.109Z,93007.00
2023-05-05T07:12:38.160Z,93009.00
2023-05-05T07:13:38.159Z,93011.00
2023-05-05T07:14:38.134Z,93009.00
2023-05-05T07:15:38.136Z,93009.00
2023-05-05T07:16:38.165Z,93007.00
2023-05-05T07:17:38.989Z,93003.00
2023-05-05T07:18:38.126Z,93001.00
2023-05-05T07:19:38.144Z,93003.00
2023-05-05T07:20:38.105Z,93001.00
2023-05-05T07:21:38.100Z,93003.00
2023-05-05T07:22:38.082Z,93001.00
2023-05-05T07:23:38.082Z,93001.00
2023-05-05T07:24:38.082Z,92999.00
2023-05-05T07:25:38.129Z,93001.00
2023-05-05T07:26:38.312Z,92997.00
2023-05-05T07:27:38.211Z,92997.00
2023-05-05T07:28:38.278Z,92997.00
2023-05-05T07:29:38.352Z,92995.00
2023-05-05T07:30:38.376Z,92993.00
2023-05-05T07:31:38.464Z,92989.00
2023-05-05T07:32:38.505Z,92989.00
2023-05-05T07:33:38.495Z,92989.00
2023-05-05T07:34:39.474Z,92989.00
2023-05-05T07:35:38.473Z,92989.00
2023-05-05T07:36:38.514Z,92989.00
2023-05-05T07:37:38.468Z,92987.00
2023-05-05T07:38:38.455Z,92985.00
2023-05-05T07:39:38.430Z,92985.00
2023-05-05T07:40:38.413Z,92985.00
2023-05-05T07:41:38.412Z,92983.00
2023-05-05T07:42:38.522Z,92977.00
2023-05-05T07:43:39.384Z,92975.00
2023-05-05T07:44:38.366Z,92977.00
2023-05-05T07:45:38.361Z,92973.00
2023-05-05T07:46:38.391Z,92970.00
2023-05-05T07:47:38.419Z,92973.00
2023-05-05T07:48:38.361Z,92968.00
2023-05-05T07:49:38.346Z,92968.00
2023-05-05T07:50:38.336Z,92968.00
2023-05-05T07:51:38.338Z,92964.00
2023-05-05T07:52:48.256Z,92966.00
2023-05-05T07:53:38.328Z,92966.00
2023-05-05T07:54:38.315Z,92964.00
2023-05-05T07:55:38.361Z,92962.00
2023-05-05T07:56:38.291Z,92962.00
2023-05-05T07:57:38.281Z,92958.00
2023-05-05T07:58:38.325Z,92958.00
2023-05-05T07:59:38.270Z,92958.00
2023-05-05T08:00:38.242Z,92954.00
2023-05-05T08:01:38.241Z,92948.00
2023-05-05T08:02:38.336Z,92948.00
2023-05-05T08:03:38.575Z,92946.00
2023-05-05T08:04:38.400Z,92946.00
2023-05-05T08:05:38.941Z,92944.00
2023-05-05T08:06:38.444Z,92946.00
2023-05-05T08:07:38.531Z,92944.00
2023-05-05T08:08:38.566Z,92940.00
2023-05-05T08:09:38.647Z,92940.00
2023-05-05T08:10:38.681Z,92942.00
2023-05-05T08:11:39.461Z,92938.00
2023-05-05T08:12:38.821Z,92938.00
2023-05-05T08:13:38.873Z,92934.00
2023-05-05T08:14:39.005Z,92934.00
2023-05-05T08:15:39.045Z,92934.00
2023-05-05T08:16:39.034Z,92932.00
2023-05-05T08:17:39.167Z,92930.00
2023-05-05T08:18:39.158Z,92930.00
2023-05-05T08:19:39.224Z,92926.00
2023-05-05T08:20:39.285Z,92925.00
2023-05-05T08:21:39.341Z,92923.00
2023-05-05T08:22:39.405Z,92923.00
2023-05-05T08:23:39.457Z,92925.00
2023-05-05T08:24:39.534Z,92919.00
2023-05-05T08:25:39.569Z,92919.00
2023-05-05T08:26:39.612Z,92919.00
2023-05-05T08:27:39.654Z,92915.00
2023-05-05T08:28:39.723Z,92913.00
2023-05-05T08:29:39.758Z,92913.00
2023-05-05T08:30:39.910Z,92913.00
2023-05-05T08:31:40.016Z,92915.00
2023-05-05T08:32:39.945Z,92909.00
2023-05-05T08:33:39.958Z,92907.00
2023-05-05T08:34:40.006Z,92907.00
2023-05-05T08:35:40.052Z,92905.00
2023-05-05T08:36:40.088Z,92903.00
2023-05-05T08:37:40.153Z,92905.00
2023-05-05T08:38:40.202Z,92905.00
2023-05-05T08:39:40.226Z,92903.00
2023-05-05T08:40:40.273Z,92905.00
2023-05-05T08:41:40.300Z,92901.00
2023-05-05T08:42:40.393Z,92901.00
2023-05-05T08:43:40.370Z,92899.00
2023-05-05T08:44:40.420Z,92897.00
2023-05-05T08:45:41.371Z,92895.00
2023-05-05T08:46:41.538Z,92895.00
2023-05-05T08:47:40.474Z,92897.00
2023-05-05T08:48:40.406Z,92895.00
2023-05-05T08:49:40.381Z,92891.00
2023-05-05T08:50:40.370Z,92893.00
2023-05-05T08:51:40.366Z,92893.00
2023-05-05T08:52:40.432Z,92889.00
2023-05-05T08:53:40.332Z,92891.00
2023-05-05T08:54:40.319Z,92887.00
2023-05-05T08:55:40.293Z,92887.00
2023-05-05T08:56:40.278Z,92889.00
2023-05-05T08:57:40.942Z,92885.00
2023-05-05T08:58:40.254Z,92883.00
2023-05-05T08:59:40.229Z,92885.00
2023-05-05T09:00:40.256Z,92879.00
2023-05-05T09:01:40.190Z,92883.00
2023-05-05T09:02:40.292Z,92881.00
2023-05-05T09:03:40.142Z,92883.00
2023-05-05T09:04:40.132Z,92883.00
2023-05-05T09:05:40.101Z,92879.00
2023-05-05T09:06:40.083Z,92878.00
2023-05-05T09:07:40.062Z,92876.00
2023-05-05T09:08:40.060Z,92874.00
2023-05-05T09:09:40.049Z,92874.00
2023-05-05T09:10:40.033Z,92874.00
2023-05-05T09:11:39.992Z,92874.00
2023-05-05T09:12:40.011Z,92874.00
2023-05-05T09:13:40.018Z,92870.00
2023-05-05T09:14:40.015Z,92866.00
2023-05-05T09:15:40.045Z,92866.00
2023-05-05T09:16:40.233Z,92864.00
2023-05-05T09:17:40.105Z,92860.00
2023-05-05T09:18:40.164Z,92858.00
2023-05-05T09:19:40.469Z,92854.00
2023-05-05T09:20:41.102Z,92852.00
2023-05-05T09:21:40.083Z,92852.00
2023-05-05T09:22:40.059Z,92852.00
2023-05-05T09:23:40.175Z,92850.00
2023-05-05T09:24:40.018Z,92850.00
2023-05-05T09:25:40.004Z,92848.00
2023-05-05T09:26:40.049Z,92850.00
2023-05-05T09:27:40.100Z,92846.00
2023-05-05T09:28:40.898Z,92846.00
2023-05-05T09:29:40.042Z,92844.00
2023-05-05T09:30:40.051Z,92842.00
2023-05-05T09:31:40.016Z,92842.00
2023-05-05T09:32:40.123Z,92836.00
2023-05-05T09:33:39.997Z,92836.00
2023-05-05T09:34:40.062Z,92832.00
2023-05-05T09:35:39.991Z,92832.00
2023-05-05T09:36:39.984Z,92825.00
2023-05-05T09:37:39.980Z,92823.00
2023-05-05T09:38:39.996Z,92821.00
2023-05-05T09:39:40.033Z,92819.00
2023-05-05T09:40:40.076Z,92819.00
2023-05-05T09:41:40.139Z,92815.00
2023-05-05T09:42:40.192Z,92817.00
2023-05-05T09:43:40.236Z,92817.00
2023-05-05T09:44:40.280Z,92817.00
2023-05-05T09:45:40.364Z,92815.00
2023-05-05T09:46:40.399Z,92819.00
2023-05-05T09:47:40.497Z,92813.00
2023-05-05T09:48:40.505Z,92811.00
2023-05-05T09:49:40.566Z,92807.00
2023-05-05T09:50:41.397Z,92807.00
2023-05-05T09:51:40.676Z,92809.00
2023-05-05T09:52:40.764Z,92809.00
2023-05-05T09:53:40.831Z,92811.00
2023-05-05T09:54:40.869Z,92809.00
2023-05-05T09:55:40.944Z,92809.00
2023-05-05T09:56:41.037Z,92807.00
2023-05-05T09:57:41.078Z,92809.00
2023-05-05T09:58:41.131Z,92809.00
2023-05-05T09:59:42.410Z,92807.00
2023-05-05T10:00:41.212Z,92809.00
2023-05-05T10:01:41.347Z,92805.00
2023-05-05T10:02:41.311Z,92805.00
2023-05-05T10:03:41.331Z,92803.00
2023-05-05T10:04:41.387Z,92803.00
2023-05-05T10:05:41.408Z,92799.00
2023-05-05T10:06:41.513Z,92799.00
2023-05-05T10:07:41.529Z,92797.00
2023-05-05T10:08:41.553Z,92793.00
2023-05-05T10:09:41.637Z,92797.00
2023-05-05T10:10:41.704Z,92793.00
2023-05-05T10:11:41.758Z,92787.00
2023-05-05T10:12:42.529Z,92787.00
2023-05-05T10:13:41.988Z,92784.00
2023-05-05T10:14:41.944Z,92784.00
2023-05-05T10:15:42.106Z,92780.00
2023-05-05T10:16:42.120Z,92780.00
2023-05-05T10:17:47.871Z,92778.00
2023-05-05T10:18:43.129Z,92776.00
2023-05-05T10:19:42.096Z,92776.00
2023-05-05T10:20:42.099Z,92772.00
2023-05-05T10:21:43.402Z,92772.00
2023-05-05T10:22:42.203Z,92766.00
2023-05-05T10:23:42.081Z,92768.00
2023-05-05T10:24:42.074Z,92764.00
2023-05-05T10:25:42.038Z,92766.00
2023-05-05T10:26:42.029Z,92762.00
2023-05-05T10:27:42.019Z,92762.00
2023-05-05T10:28:42.003Z,92758.00
2023-05-05T10:29:41.984Z,92756.00
2023-05-05T10:30:41.970Z,92756.00
2023-05-05T10:31:42.048Z,92752.00
2023-05-05T10:33:42.077Z,92750.00
2023-05-05T10:34:42.035Z,92748.00
2023-05-05T10:35:41.994Z,92746.00
2023-05-05T10:36:41.967Z,92744.00
2023-05-05T10:37:41.963Z,92746.00
2023-05-05T10:38:42.012Z,92744.00
2023-05-05T10:39:41.982Z,92742.00
2023-05-05T10:40:41.919Z,92738.00
2023-05-05T10:41:41.915Z,92736.00
2023-05-05T10:42:41.910Z,92735.00
2023-05-05T10:43:41.896Z,92729.00
2023-05-05T10:44:41.873Z,92731.00
2023-05-05T10:45:41.969Z,92729.00
2023-05-05T10:46:41.921Z,92727.00
2023-05-05T10:47:41.891Z,92729.00
2023-05-05T10:48:41.877Z,92725.00
2023-05-05T10:49:41.825Z,92723.00
2023-05-05T10:50:41.814Z,92721.00
2023-05-05T10:51:41.804Z,92719.00
2023-05-05T10:52:41.789Z,92719.00
2023-05-05T10:53:41.776Z,92717.00
2023-05-05T10:54:41.865Z,92713.00
2023-05-05T10:55:41.743Z,92711.00
2023-05-05T10:56:41.718Z,92715.00
2023-05-05T10:57:41.748Z,92711.00
2023-05-05T10:58:58.388Z,92709.00
2023-05-05T10:59:42.702Z,92707.00
2023-05-05T11:00:41.685Z,92703.00
2023-05-05T11:01:41.651Z,92707.00
2023-05-05T11:02:41.739Z,92703.00
2023-05-05T11:03:41.668Z,92705.00
2023-05-05T11:04:41.606Z,92701.00
2023-05-05T11:05:41.595Z,92695.00
2023-05-05T11:06:41.584Z,92697.00
2023-05-05T11:07:41.562Z,92693.00
2023-05-05T11:08:41.550Z,92693.00
2023-05-05T11:09:41.597Z,92689.00
2023-05-05T11:10:41.652Z,92687.00
2023-05-05T11:11:41.507Z,92684.00
2023-05-05T11:12:41.500Z,92684.00
2023-05-05T11:13:41.483Z,92684.00
2023-05-05T11:14:41.486Z,92680.00
2023-05-05T11:15:41.487Z,92680.00
2023-05-05T11:16:41.485Z,92676.00
2023-05-05T11:17:41.492Z,92674.00
2023-05-05T11:18:41.440Z,92672.00
2023-05-05T11:19:41.421Z,92670.00
2023-05-05T11:20:41.451Z,92666.00
2023-05-05T11:21:41.481Z,92664.00
2023-05-05T11:22:41.515Z,92664.00
2023-05-05T11:23:41.556Z,92664.00
2023-05-05T11:24:41.590Z,92662.00
2023-05-05T11:25:41.627Z,92662.00
2023-05-05T11:26:41.718Z,92660.00
2023-05-05T11:27:41.693Z,92660.00
2023-05-05T11:28:41.725Z,92660.00
2023-05-05T11:29:41.765Z,92656.00
2023-05-05T11:30:41.842Z,92656.00
2023-05-05T11:31:41.890Z,92658.00
2023-05-05T11:32:41.928Z,92654.00
2023-05-05T11:33:41.931Z,92654.00
2023-05-05T11:34:41.984Z,92654.00
2023-05-05T11:35:42.018Z,92648.00
2023-05-05T11:36:42.082Z,92650.00
2023-05-05T11:37:42.117Z,92648.00
2023-05-05T11:38:42.166Z,92646.00
2023-05-05T11:39:42.226Z,92646.00
2023-05-05T11:40:42.247Z,92646.00
2023-05-05T11:41:42.309Z,92644.00
2023-05-05T11:42:42.348Z,92638.00
2023-05-05T11:43:42.389Z,92638.00
2023-05-05T11:44:42.439Z,92638.00
2023-05-05T11:45:42.475Z,92638.00